createdAt,value
2023-02-09T00:02:00.942Z,120.00
2023-02-09T00:05:08.333Z,113.40
2023-02-09T00:08:14.517Z,116.20
2023-02-09T00:14:26.666Z,119.80
2023-02-09T00:17:33.436Z,119.10
2023-02-09T00:20:39.690Z,113.70
2023-02-09T00:23:46.200Z,116.30
2023-02-09T00:26:52.633Z,114.80
2023-02-09T00:29:58.945Z,107.30
2023-02-09T00:33:05.274Z,112.60
2023-02-09T00:36:14.511Z,103.90
2023-02-09T00:39:20.716Z,116.30
2023-02-09T00:42:26.926Z,118.80
2023-02-09T00:45:33.572Z,100.10
2023-02-09T00:48:39.917Z,98.90
2023-02-09T00:51:46.632Z,100.40
2023-02-09T00:54:52.973Z,105.30
2023-02-09T00:57:59.149Z,107.40
2023-02-09T01:01:05.480Z,116.60
2023-02-09T01:04:11.712Z,115.90
2023-02-09T01:07:17.945Z,104.80
2023-02-09T01:10:24.554Z,110.80
2023-02-09T01:13:31.150Z,97.70
2023-02-09T01:16:37.406Z,96.40
2023-02-09T01:19:43.627Z,98.20
2023-02-09T01:22:50.052Z,100.90
2023-02-09T01:26:04.647Z,90.70
2023-02-09T01:29:13.040Z,100.90
2023-02-09T01:32:19.176Z,108.90
2023-02-09T01:38:30.591Z,107.20
2023-02-09T01:41:37.043Z,114.50
2023-02-09T01:45:17.911Z,118.60
2023-02-09T01:48:27.424Z,122.00
2023-02-09T01:51:37.906Z,118.10
2023-02-09T01:54:47.715Z,111.70
2023-02-09T01:57:56.744Z,112.00
2023-02-09T02:01:03.205Z,110.70
2023-02-09T02:04:09.839Z,109.70
2023-02-09T02:07:21.843Z,108.90
2023-02-09T02:10:28.317Z,108.00
2023-02-09T02:13:34.562Z,106.80
2023-02-09T02:16:55.177Z,105.30
2023-02-09T02:20:33.298Z,104.90
2023-02-09T02:23:48.692Z,121.10
2023-02-09T02:26:59.679Z,127.10
2023-02-09T02:30:35.270Z,118.50
2023-02-09T02:33:50.974Z,121.80
2023-02-09T02:37:05.253Z,122.80
2023-02-09T02:40:21.841Z,119.90
2023-02-09T02:43:41.705Z,126.80
2023-02-09T02:46:52.080Z,112.80
2023-02-09T02:50:04.953Z,110.50
2023-02-09T02:53:14.936Z,117.50
2023-02-09T02:56:25.823Z,131.50
2023-02-09T02:59:35.207Z,109.00
2023-02-09T03:02:44.831Z,91.00
2023-02-09T03:05:51.917Z,95.50
2023-02-09T03:08:59.569Z,100.50
2023-02-09T03:12:14.157Z,101.10
2023-02-09T03:15:31.710Z,119.20
2023-02-09T03:18:45.355Z,111.20
2023-02-09T03:21:57.114Z,109.50
2023-02-09T03:25:07.693Z,108.40
2023-02-09T03:28:19.569Z,105.60
2023-02-09T03:31:26.710Z,118.20
2023-02-09T03:34:32.940Z,114.30
2023-02-09T03:37:39.644Z,100.50
2023-02-09T03:40:46.559Z,113.20
2023-02-09T03:44:10.607Z,102.90
2023-02-09T03:47:16.771Z,116.00
2023-02-09T03:50:23.072Z,106.90
2023-02-09T03:53:29.406Z,105.80
2023-02-09T03:56:37.647Z,109.40
2023-02-09T03:59:43.942Z,114.80
2023-02-09T04:02:50.191Z,128.70
2023-02-09T04:05:56.690Z,117.90
2023-02-09T04:09:03.994Z,118.70
2023-02-09T04:12:10.570Z,115.80
2023-02-09T04:15:16.890Z,113.80
2023-02-09T04:18:23.541Z,112.40
2023-02-09T04:21:29.810Z,108.10
2023-02-09T04:24:36.281Z,119.00
2023-02-09T04:27:42.468Z,107.70
2023-02-09T04:30:52.414Z,110.10
2023-02-09T04:33:58.660Z,120.40
2023-02-09T04:37:04.928Z,93.00
2023-02-09T04:40:12.900Z,105.20
2023-02-09T04:43:19.992Z,107.80
2023-02-09T04:46:26.272Z,110.00
2023-02-09T04:49:32.629Z,105.50
2023-02-09T04:52:38.805Z,110.70
2023-02-09T04:55:46.716Z,108.70
2023-02-09T04:59:10.448Z,105.00
2023-02-09T05:02:16.604Z,95.60
2023-02-09T05:05:22.989Z,88.90
2023-02-09T05:08:30.106Z,85.80
2023-02-09T05:11:36.321Z,108.60
2023-02-09T05:14:42.590Z,114.00
2023-02-09T05:17:48.926Z,90.70
2023-02-09T05:20:55.473Z,96.50
2023-02-09T05:24:01.758Z,107.20
2023-02-09T05:27:08.010Z,110.10
2023-02-09T05:30:15.573Z,110.20
2023-02-09T05:33:22.006Z,110.60
2023-02-09T05:36:28.334Z,116.60
2023-02-09T05:39:34.710Z,114.20
2023-02-09T05:42:41.186Z,105.30
2023-02-09T05:45:48.439Z,116.90
2023-02-09T05:48:54.726Z,100.90
2023-02-09T05:52:01.025Z,82.40
2023-02-09T05:55:07.988Z,82.90
2023-02-09T05:58:14.618Z,79.90
2023-02-09T06:01:20.943Z,73.90
2023-02-09T06:04:27.853Z,74.80
2023-02-09T06:07:34.033Z,106.20
2023-02-09T06:10:40.075Z,104.20
2023-02-09T06:16:50.774Z,105.40
2023-02-09T06:19:56.981Z,124.80
2023-02-09T06:23:03.273Z,145.20
2023-02-09T06:26:11.989Z,115.60
2023-02-09T06:29:18.203Z,113.90
2023-02-09T06:32:24.376Z,105.30
2023-02-09T06:35:30.638Z,103.90
2023-02-09T06:38:38.129Z,116.40
2023-02-09T06:41:44.331Z,106.50
2023-02-09T06:44:50.552Z,100.90
2023-02-09T06:47:56.754Z,106.50
2023-02-09T06:51:03.110Z,100.80
2023-02-09T06:54:09.819Z,88.30
2023-02-09T06:57:16.078Z,91.70
2023-02-09T07:00:23.891Z,92.00
2023-02-09T07:03:30.870Z,87.40
2023-02-09T07:06:37.144Z,78.10
2023-02-09T07:09:43.366Z,95.20
2023-02-09T07:12:49.708Z,86.70
2023-02-09T07:16:00.936Z,92.00
2023-02-09T07:19:07.216Z,89.30
2023-02-09T07:22:13.543Z,91.30
2023-02-09T07:25:19.957Z,106.40
2023-02-09T07:28:26.432Z,99.20
2023-02-09T07:31:32.701Z,100.70
2023-02-09T07:34:38.996Z,85.60
2023-02-09T07:37:45.441Z,93.60
2023-02-09T07:40:51.921Z,86.10
2023-02-09T07:43:58.457Z,84.60
2023-02-09T07:47:04.828Z,90.20
2023-02-09T07:50:12.014Z,104.30
2023-02-09T07:53:18.502Z,95.90
2023-02-09T07:56:25.050Z,99.00
2023-02-09T07:59:31.294Z,90.80
2023-02-09T08:02:38.987Z,86.80
2023-02-09T08:05:52.641Z,86.00
2023-02-09T08:09:01.077Z,75.60
2023-02-09T08:12:09.710Z,67.10
2023-02-09T08:15:18.030Z,66.20
2023-02-09T08:18:26.440Z,66.00
2023-02-09T08:21:35.527Z,61.20
2023-02-09T08:24:42.400Z,64.30
2023-02-09T08:27:49.494Z,61.00
2023-02-09T08:30:55.836Z,58.70
2023-02-09T08:34:02.087Z,65.00
2023-02-09T08:37:08.207Z,65.60
2023-02-09T08:43:21.383Z,60.60
2023-02-09T08:46:27.930Z,65.40
2023-02-09T08:49:34.305Z,84.90
2023-02-09T08:55:45.317Z,81.00
2023-02-09T08:58:51.959Z,82.70
2023-02-09T09:01:58.213Z,75.80
2023-02-09T09:08:09.688Z,65.10
2023-02-09T09:11:16.066Z,67.60
2023-02-09T09:14:22.292Z,73.70
2023-02-09T09:20:33.216Z,70.70
2023-02-09T09:23:39.674Z,62.90
2023-02-09T09:26:46.524Z,49.60
2023-02-09T09:29:52.843Z,52.10
2023-02-09T09:32:59.068Z,55.50
2023-02-09T09:39:10.133Z,41.80
2023-02-09T09:45:31.699Z,46.50
2023-02-09T09:48:44.625Z,45.30
2023-02-09T09:51:54.844Z,46.20
2023-02-09T09:55:02.540Z,45.80
2023-02-09T09:58:17.173Z,43.20
2023-02-09T10:01:23.508Z,44.10
2023-02-09T10:04:31.558Z,40.30
2023-02-09T10:07:39.129Z,38.70
2023-02-09T10:10:50.973Z,42.40
2023-02-09T10:13:58.640Z,37.60
2023-02-09T10:17:05.274Z,36.70
2023-02-09T10:20:13.437Z,36.70
2023-02-09T10:23:23.921Z,35.60
2023-02-09T10:26:32.326Z,34.20
2023-02-09T10:29:38.868Z,34.40
2023-02-09T10:32:46.471Z,30.80
2023-02-09T10:35:55.077Z,32.70
2023-02-09T10:39:19.904Z,29.10
2023-02-09T10:42:30.346Z,27.70
2023-02-09T10:45:42.024Z,24.20
2023-02-09T10:48:49.001Z,25.10
2023-02-09T10:52:07.177Z,27.00
2023-02-09T10:55:21.312Z,22.20
2023-02-09T10:58:31.392Z,27.20
2023-02-09T11:01:43.448Z,23.50
2023-02-09T11:04:50.083Z,21.60
2023-02-09T11:08:00.368Z,20.90
2023-02-09T11:11:10.452Z,21.40
2023-02-09T11:14:18.545Z,20.60
2023-02-09T11:17:36.531Z,19.90
2023-02-09T11:20:46.330Z,19.80
2023-02-09T11:24:03.234Z,21.00
2023-02-09T11:27:23.609Z,19.60
2023-02-09T11:30:45.909Z,20.50
2023-02-09T11:34:02.017Z,17.80
2023-02-09T11:37:21.356Z,20.30
2023-02-09T11:40:33.297Z,18.40
2023-02-09T11:43:42.495Z,21.20
2023-02-09T11:46:50.683Z,18.30
2023-02-09T11:49:59.322Z,19.00
2023-02-09T11:53:13.023Z,19.70
2023-02-09T11:56:21.209Z,20.20
2023-02-09T11:59:34.156Z,20.10
2023-02-09T12:02:52.188Z,21.50
2023-02-09T12:05:58.647Z,21.80
2023-02-09T12:12:27.163Z,22.10
2023-02-09T12:15:43.001Z,19.70
2023-02-09T12:18:49.690Z,19.80
2023-02-09T12:21:55.976Z,22.10
2023-02-09T12:25:19.754Z,18.30
2023-02-09T12:28:46.991Z,16.70
2023-02-09T12:32:35.978Z,17.70
2023-02-09T12:35:43.576Z,16.80
2023-02-09T12:39:05.098Z,16.40
2023-02-09T12:42:31.328Z,15.60
2023-02-09T12:45:39.778Z,17.10
2023-02-09T12:49:04.522Z,17.30
2023-02-09T12:52:20.349Z,17.40
2023-02-09T12:55:27.375Z,15.40
2023-02-09T12:59:10.482Z,15.70
2023-02-09T13:02:28.178Z,14.40
2023-02-09T13:05:38.966Z,12.60
2023-02-09T13:08:53.555Z,10.80
2023-02-09T13:12:07.638Z,12.00
2023-02-09T13:15:19.331Z,11.60
2023-02-09T13:18:35.160Z,11.60
2023-02-09T13:21:48.538Z,12.80
2023-02-09T13:24:59.826Z,10.80
2023-02-09T13:28:16.395Z,11.70
2023-02-09T13:31:39.774Z,11.40
2023-02-09T13:34:55.458Z,12.30
2023-02-09T13:38:08.460Z,12.50
2023-02-09T13:41:28.492Z,12.60
2023-02-09T13:44:36.957Z,11.50
2023-02-09T13:47:49.395Z,11.50
2023-02-09T13:50:57.433Z,12.60
2023-02-09T13:54:05.101Z,12.70
2023-02-09T13:57:23.779Z,12.20
2023-02-09T14:00:37.486Z,11.90
2023-02-09T14:03:57.805Z,11.50
2023-02-09T14:07:08.499Z,15.10
2023-02-09T14:10:18.209Z,15.10
2023-02-09T14:13:28.836Z,17.80
2023-02-09T14:16:44.724Z,16.40
2023-02-09T14:20:00.390Z,21.20
2023-02-09T14:23:17.517Z,22.10
2023-02-09T14:26:27.714Z,17.00
2023-02-09T14:29:36.141Z,17.50
2023-02-09T14:32:45.569Z,18.40
2023-02-09T14:35:59.348Z,17.30
2023-02-09T14:39:14.036Z,20.20
2023-02-09T14:42:20.793Z,20.30
2023-02-09T14:45:39.420Z,28.20
2023-02-09T14:48:45.853Z,23.30
2023-02-09T14:55:00.026Z,27.90
2023-02-09T14:58:13.944Z,27.20
2023-02-09T15:01:20.272Z,18.10
2023-02-09T15:07:37.588Z,13.30
2023-02-09T15:10:48.526Z,13.40
2023-02-09T15:13:58.497Z,13.20
2023-02-09T15:17:11.106Z,12.00
2023-02-09T15:20:21.447Z,12.70
2023-02-09T15:23:27.934Z,13.80
2023-02-09T15:26:37.272Z,14.10
2023-02-09T15:29:43.418Z,14.80
2023-02-09T15:32:49.961Z,15.20
2023-02-09T15:35:59.551Z,13.60
2023-02-09T15:39:08.255Z,13.80
2023-02-09T15:42:35.502Z,15.00
2023-02-09T15:46:10.552Z,14.10
2023-02-09T15:49:16.822Z,14.90
2023-02-09T15:55:29.096Z,13.60
2023-02-09T15:58:37.340Z,16.30
2023-02-09T16:01:43.768Z,21.20
2023-02-09T16:04:50.232Z,74.90
2023-02-09T16:11:02.158Z,37.40
2023-02-09T16:14:17.772Z,23.90
2023-02-09T16:17:24.108Z,17.30
2023-02-09T16:23:37.428Z,20.50
2023-02-09T16:26:43.633Z,25.40
2023-02-09T16:29:49.910Z,27.60
2023-02-09T16:32:57.080Z,85.10
2023-02-09T16:36:05.289Z,34.60
2023-02-09T16:39:18.926Z,41.00
2023-02-09T16:42:26.535Z,29.30
2023-02-09T16:45:38.809Z,34.20
2023-02-09T16:48:47.917Z,22.90
2023-02-09T16:51:56.314Z,24.70
2023-02-09T16:55:07.717Z,35.40
2023-02-09T16:58:16.706Z,74.30
2023-02-09T17:01:24.216Z,45.40
2023-02-09T17:04:30.678Z,27.30
2023-02-09T17:11:00.554Z,30.70
2023-02-09T17:14:06.876Z,29.80
2023-02-09T17:20:30.440Z,40.20
2023-02-09T17:23:37.043Z,33.80
2023-02-09T17:26:43.557Z,32.40
2023-02-09T17:29:49.874Z,32.80
2023-02-09T17:39:33.106Z,78.30
2023-02-09T17:45:49.094Z,34.10
2023-02-09T17:48:55.587Z,35.50
2023-02-09T17:52:01.846Z,36.50
2023-02-09T17:58:13.577Z,42.20
2023-02-09T18:01:27.441Z,40.40
2023-02-09T18:04:33.891Z,36.20
2023-02-09T18:07:40.262Z,78.00
2023-02-09T18:13:51.100Z,55.60
2023-02-09T18:20:02.584Z,46.90
2023-02-09T18:26:13.706Z,63.10
2023-02-09T18:32:24.669Z,47.60
2023-02-09T18:35:34.346Z,58.40
2023-02-09T18:38:41.064Z,49.70
2023-02-09T18:41:54.429Z,77.00
2023-02-09T18:45:01.240Z,36.20
2023-02-09T18:51:12.635Z,93.10
2023-02-09T18:54:19.048Z,46.10
2023-02-09T18:57:25.273Z,37.50
2023-02-09T19:00:32.697Z,52.00
2023-02-09T19:03:38.945Z,34.60
2023-02-09T19:09:49.897Z,34.80
2023-02-09T19:16:01.957Z,30.60
2023-02-09T19:19:09.617Z,82.20
2023-02-09T19:22:19.816Z,168.30
2023-02-09T19:25:29.018Z,113.70
2023-02-09T19:28:36.265Z,117.70
2023-02-09T19:31:42.863Z,108.50
2023-02-09T19:34:50.000Z,42.50
2023-02-09T19:37:57.651Z,70.70
2023-02-09T19:41:12.055Z,75.20
2023-02-09T19:44:18.534Z,76.20
2023-02-09T19:47:27.488Z,68.20
2023-02-09T19:50:33.910Z,222.30
2023-02-09T19:53:40.169Z,402.90
2023-02-09T19:59:51.664Z,65.20
2023-02-09T20:06:05.750Z,107.90
2023-02-09T20:09:12.470Z,38.00
2023-02-09T20:12:19.279Z,38.10
2023-02-09T20:15:25.727Z,94.20
2023-02-09T20:18:32.171Z,69.80
2023-02-09T20:24:44.377Z,73.10
2023-02-09T20:27:51.825Z,97.10
2023-02-09T20:30:58.176Z,77.10
2023-02-09T20:37:12.167Z,79.20
2023-02-09T20:40:18.590Z,75.40
2023-02-09T20:43:42.602Z,78.00
2023-02-09T20:46:58.087Z,71.10
2023-02-09T20:50:05.166Z,72.10
2023-02-09T20:53:11.542Z,76.90
2023-02-09T20:56:17.758Z,67.00
2023-02-09T20:59:25.504Z,53.80
2023-02-09T21:02:31.811Z,39.50
2023-02-09T21:05:38.655Z,30.40
2023-02-09T21:08:44.911Z,28.70
2023-02-09T21:14:56.739Z,27.80
2023-02-09T21:18:03.116Z,26.20
2023-02-09T21:24:14.434Z,28.90
2023-02-09T21:30:26.068Z,19.10
2023-02-09T21:33:32.283Z,23.90
2023-02-09T21:42:49.994Z,22.80
2023-02-09T21:45:56.292Z,23.40
2023-02-09T21:49:02.934Z,20.90
2023-02-09T21:52:09.670Z,22.30
2023-02-09T21:55:17.099Z,22.40
2023-02-09T21:58:23.355Z,19.10
2023-02-09T22:04:34.355Z,20.20
2023-02-09T22:07:40.776Z,26.40
2023-02-09T22:10:48.901Z,22.30
2023-02-09T22:13:56.357Z,26.30
2023-02-09T22:17:02.920Z,30.70
2023-02-09T22:20:11.107Z,23.30
2023-02-09T22:23:18.669Z,29.50
2023-02-09T22:26:24.861Z,57.20
2023-02-09T22:29:33.374Z,26.40
2023-02-09T22:32:39.854Z,38.40
2023-02-09T22:35:46.409Z,30.40
2023-02-09T22:38:52.825Z,21.40
2023-02-09T22:45:06.145Z,20.80
2023-02-09T22:48:13.614Z,30.40
2023-02-09T22:51:20.809Z,22.00
2023-02-09T22:54:27.038Z,22.30
2023-02-09T23:00:37.821Z,22.10
2023-02-09T23:03:44.169Z,25.00
2023-02-09T23:06:50.466Z,30.50
2023-02-09T23:13:01.595Z,34.50
2023-02-09T23:16:16.012Z,53.30
2023-02-09T23:19:22.930Z,27.00
2023-02-09T23:22:29.240Z,32.40
2023-02-09T23:28:40.205Z,21.30
2023-02-09T23:34:51.384Z,20.60
2023-02-09T23:37:57.840Z,20.60
2023-02-09T23:41:08.957Z,19.50
2023-02-09T23:44:15.297Z,20.20
2023-02-09T23:47:21.541Z,18.80
2023-02-09T23:50:27.720Z,20.80
2023-02-09T23:53:35.262Z,20.40
2023-02-09T23:56:42.067Z,21.10
2023-02-09T23:59:48.500Z,25.30
